sensor_id;sensor_type;location;lat;lon;timestamp;P1;durP1;ratioP1;P2;durP2;ratioP2
43540;SDS011;29549;40.386;-3.710;2023-07-09T00:00:28;9.67;;;4.63;;
43540;SDS011;29549;40.386;-3.710;2023-07-09T00:10:29;12.27;;;6.67;;
43540;SDS011;29549;40.386;-3.710;2023-07-09T00:20:30;15.43;;;11.40;;
43540;SDS011;29549;40.386;-3.710;2023-07-09T00:30:31;9.55;;;4.22;;
43540;SDS011;29549;40.386;-3.710;2023-07-09T00:40:32;6.17;;;4.00;;
43540;SDS011;29549;40.386;-3.710;2023-07-09T00:50:46;8.80;;;4.63;;
43540;SDS011;29549;40.386;-3.710;2023-07-09T01:00:50;7.18;;;4.30;;
43540;SDS011;29549;40.386;-3.710;2023-07-09T01:10:57;9.05;;;4.68;;
43540;SDS011;29549;40.386;-3.710;2023-07-09T01:21:08;8.88;;;4.90;;
43540;SDS011;29549;40.386;-3.710;2023-07-09T01:31:15;9.57;;;4.78;;
43540;SDS011;29549;40.386;-3.710;2023-07-09T01:41:16;13.03;;;5.17;;
43540;SDS011;29549;40.386;-3.710;2023-07-09T01:51:17;9.75;;;4.45;;
43540;SDS011;29549;40.386;-3.710;2023-07-09T02:01:18;8.67;;;4.13;;
43540;SDS011;29549;40.386;-3.710;2023-07-09T02:11:19;6.20;;;3.70;;
43540;SDS011;29549;40.386;-3.710;2023-07-09T02:21:20;8.70;;;4.37;;
43540;SDS011;29549;40.386;-3.710;2023-07-09T02:31:21;9.20;;;3.67;;
43540;SDS011;29549;40.386;-3.710;2023-07-09T02:41:22;7.80;;;3.60;;
43540;SDS011;29549;40.386;-3.710;2023-07-09T02:51:22;7.40;;;4.13;;
43540;SDS011;29549;40.386;-3.710;2023-07-09T03:01:24;7.28;;;4.25;;
43540;SDS011;29549;40.386;-3.710;2023-07-09T03:11:30;7.18;;;3.78;;
43540;SDS011;29549;40.386;-3.710;2023-07-09T03:21:32;6.97;;;3.65;;
43540;SDS011;29549;40.386;-3.710;2023-07-09T03:31:33;6.03;;;3.33;;
43540;SDS011;29549;40.386;-3.710;2023-07-09T03:41:35;7.47;;;3.47;;
43540;SDS011;29549;40.386;-3.710;2023-07-09T03:51:35;7.40;;;3.60;;
43540;SDS011;29549;40.386;-3.710;2023-07-09T04:01:36;8.07;;;3.65;;
43540;SDS011;29549;40.386;-3.710;2023-07-09T04:11:37;6.80;;;3.40;;
43540;SDS011;29549;40.386;-3.710;2023-07-09T04:21:38;8.30;;;3.85;;
43540;SDS011;29549;40.386;-3.710;2023-07-09T04:31:39;8.52;;;3.72;;
43540;SDS011;29549;40.386;-3.710;2023-07-09T04:41:40;6.57;;;3.83;;
43540;SDS011;29549;40.386;-3.710;2023-07-09T04:51:41;9.15;;;3.92;;
43540;SDS011;29549;40.386;-3.710;2023-07-09T05:01:42;8.70;;;3.72;;
43540;SDS011;29549;40.386;-3.710;2023-07-09T05:11:43;9.05;;;3.97;;
43540;SDS011;29549;40.386;-3.710;2023-07-09T05:21:44;10.13;;;5.32;;
43540;SDS011;29549;40.386;-3.710;2023-07-09T05:31:44;8.82;;;4.20;;
43540;SDS011;29549;40.386;-3.710;2023-07-09T05:41:45;9.15;;;4.15;;
43540;SDS011;29549;40.386;-3.710;2023-07-09T05:51:46;7.20;;;3.72;;
43540;SDS011;29549;40.386;-3.710;2023-07-09T06:01:47;11.20;;;4.47;;
43540;SDS011;29549;40.386;-3.710;2023-07-09T06:11:47;9.13;;;4.10;;
43540;SDS011;29549;40.386;-3.710;2023-07-09T06:21:48;10.73;;;4.65;;
43540;SDS011;29549;40.386;-3.710;2023-07-09T06:31:49;6.93;;;4.05;;
43540;SDS011;29549;40.386;-3.710;2023-07-09T06:41:50;8.63;;;4.70;;
43540;SDS011;29549;40.386;-3.710;2023-07-09T06:51:50;10.57;;;4.50;;
43540;SDS011;29549;40.386;-3.710;2023-07-09T07:01:51;5.88;;;3.72;;
43540;SDS011;29549;40.386;-3.710;2023-07-09T07:11:52;8.95;;;4.30;;
43540;SDS011;29549;40.386;-3.710;2023-07-09T07:21:52;7.37;;;4.23;;
43540;SDS011;29549;40.386;-3.710;2023-07-09T07:31:53;7.33;;;3.77;;
43540;SDS011;29549;40.386;-3.710;2023-07-09T07:41:54;6.22;;;4.47;;
43540;SDS011;29549;40.386;-3.710;2023-07-09T07:51:56;8.48;;;5.45;;
43540;SDS011;29549;40.386;-3.710;2023-07-09T08:01:56;8.10;;;5.13;;
43540;SDS011;29549;40.386;-3.710;2023-07-09T08:11:57;9.02;;;5.20;;
43540;SDS011;29549;40.386;-3.710;2023-07-09T08:21:58;8.07;;;4.40;;
43540;SDS011;29549;40.386;-3.710;2023-07-09T08:52:53;9.77;;;5.82;;
43540;SDS011;29549;40.386;-3.710;2023-07-09T09:02:36;9.60;;;5.20;;
43540;SDS011;29549;40.386;-3.710;2023-07-09T09:12:55;17.75;;;7.60;;
43540;SDS011;29549;40.386;-3.710;2023-07-09T09:23:14;9.52;;;4.43;;
43540;SDS011;29549;40.386;-3.710;2023-07-09T09:33:16;11.93;;;5.72;;
43540;SDS011;29549;40.386;-3.710;2023-07-09T09:43:19;12.70;;;6.72;;
43540;SDS011;29549;40.386;-3.710;2023-07-09T09:53:21;7.93;;;4.43;;
43540;SDS011;29549;40.386;-3.710;2023-07-09T10:03:34;6.93;;;3.97;;
43540;SDS011;29549;40.386;-3.710;2023-07-09T10:13:37;6.65;;;3.65;;
43540;SDS011;29549;40.386;-3.710;2023-07-09T10:24:07;8.88;;;3.83;;
43540;SDS011;29549;40.386;-3.710;2023-07-09T10:44:28;7.88;;;4.53;;
43540;SDS011;29549;40.386;-3.710;2023-07-09T11:04:45;6.28;;;4.50;;
43540;SDS011;29549;40.386;-3.710;2023-07-09T11:14:58;6.03;;;3.58;;
43540;SDS011;29549;40.386;-3.710;2023-07-09T11:25:12;6.38;;;3.88;;
43540;SDS011;29549;40.386;-3.710;2023-07-09T11:35:20;6.60;;;3.72;;
43540;SDS011;29549;40.386;-3.710;2023-07-09T11:45:30;5.60;;;3.70;;
43540;SDS011;29549;40.386;-3.710;2023-07-09T11:55:42;5.10;;;3.03;;
43540;SDS011;29549;40.386;-3.710;2023-07-09T12:05:49;7.00;;;4.18;;
43540;SDS011;29549;40.386;-3.710;2023-07-09T12:15:52;5.07;;;2.95;;
43540;SDS011;29549;40.386;-3.710;2023-07-09T12:25:53;10.48;;;8.23;;
43540;SDS011;29549;40.386;-3.710;2023-07-09T12:35:58;6.05;;;3.28;;
43540;SDS011;29549;40.386;-3.710;2023-07-09T12:46:01;7.60;;;3.13;;
43540;SDS011;29549;40.386;-3.710;2023-07-09T12:56:02;5.38;;;2.60;;
43540;SDS011;29549;40.386;-3.710;2023-07-09T13:06:30;7.60;;;3.10;;
43540;SDS011;29549;40.386;-3.710;2023-07-09T13:16:38;6.32;;;3.05;;
43540;SDS011;29549;40.386;-3.710;2023-07-09T13:26:40;4.35;;;2.67;;
43540;SDS011;29549;40.386;-3.710;2023-07-09T13:36:41;5.47;;;3.40;;
43540;SDS011;29549;40.386;-3.710;2023-07-09T13:46:42;4.90;;;2.47;;
43540;SDS011;29549;40.386;-3.710;2023-07-09T13:56:43;4.20;;;2.63;;
43540;SDS011;29549;40.386;-3.710;2023-07-09T14:06:44;3.95;;;2.58;;
43540;SDS011;29549;40.386;-3.710;2023-07-09T14:16:49;4.78;;;2.28;;
43540;SDS011;29549;40.386;-3.710;2023-07-09T14:26:52;4.55;;;2.25;;
43540;SDS011;29549;40.386;-3.710;2023-07-09T14:36:54;3.50;;;2.17;;
43540;SDS011;29549;40.386;-3.710;2023-07-09T14:46:57;3.75;;;2.20;;
43540;SDS011;29549;40.386;-3.710;2023-07-09T14:56:59;4.00;;;1.65;;
43540;SDS011;29549;40.386;-3.710;2023-07-09T15:07:00;4.00;;;2.30;;
43540;SDS011;29549;40.386;-3.710;2023-07-09T15:17:01;3.90;;;2.72;;
43540;SDS011;29549;40.386;-3.710;2023-07-09T15:27:01;3.63;;;2.20;;
43540;SDS011;29549;40.386;-3.710;2023-07-09T15:37:08;6.65;;;4.65;;
43540;SDS011;29549;40.386;-3.710;2023-07-09T15:47:15;3.63;;;2.03;;
43540;SDS011;29549;40.386;-3.710;2023-07-09T15:57:18;3.80;;;2.22;;
43540;SDS011;29549;40.386;-3.710;2023-07-09T16:07:19;3.25;;;2.25;;
43540;SDS011;29549;40.386;-3.710;2023-07-09T16:17:23;6.32;;;2.60;;
43540;SDS011;29549;40.386;-3.710;2023-07-09T16:27:24;4.93;;;3.72;;
43540;SDS011;29549;40.386;-3.710;2023-07-09T16:37:25;3.85;;;2.13;;
43540;SDS011;29549;40.386;-3.710;2023-07-09T16:47:26;4.57;;;1.90;;
43540;SDS011;29549;40.386;-3.710;2023-07-09T16:57:28;4.10;;;2.20;;
43540;SDS011;29549;40.386;-3.710;2023-07-09T17:07:32;4.05;;;2.33;;
43540;SDS011;29549;40.386;-3.710;2023-07-09T17:17:33;3.45;;;1.77;;
43540;SDS011;29549;40.386;-3.710;2023-07-09T17:27:34;5.60;;;2.40;;
43540;SDS011;29549;40.386;-3.710;2023-07-09T17:37:35;2.75;;;1.80;;
43540;SDS011;29549;40.386;-3.710;2023-07-09T17:47:35;5.15;;;2.30;;
43540;SDS011;29549;40.386;-3.710;2023-07-09T17:57:36;4.00;;;2.30;;
43540;SDS011;29549;40.386;-3.710;2023-07-09T18:07:38;5.13;;;2.20;;
43540;SDS011;29549;40.386;-3.710;2023-07-09T18:17:39;4.70;;;2.40;;
43540;SDS011;29549;40.386;-3.710;2023-07-09T18:27:43;5.07;;;2.40;;
43540;SDS011;29549;40.386;-3.710;2023-07-09T18:37:48;4.35;;;2.40;;
43540;SDS011;29549;40.386;-3.710;2023-07-09T18:47:50;5.03;;;2.22;;
43540;SDS011;29549;40.386;-3.710;2023-07-09T18:57:52;5.75;;;2.40;;
43540;SDS011;29549;40.386;-3.710;2023-07-09T19:07:54;3.13;;;2.20;;
43540;SDS011;29549;40.386;-3.710;2023-07-09T19:17:57;4.22;;;2.75;;
43540;SDS011;29549;40.386;-3.710;2023-07-09T19:27:58;4.57;;;3.15;;
43540;SDS011;29549;40.386;-3.710;2023-07-09T19:37:58;5.32;;;3.40;;
43540;SDS011;29549;40.386;-3.710;2023-07-09T19:47:59;4.43;;;3.08;;
43540;SDS011;29549;40.386;-3.710;2023-07-09T19:58:01;7.22;;;3.47;;
43540;SDS011;29549;40.386;-3.710;2023-07-09T20:08:09;6.32;;;3.75;;
43540;SDS011;29549;40.386;-3.710;2023-07-09T20:18:14;6.65;;;3.03;;
43540;SDS011;29549;40.386;-3.710;2023-07-09T20:28:17;5.90;;;3.80;;
43540;SDS011;29549;40.386;-3.710;2023-07-09T20:38:20;8.25;;;3.65;;
43540;SDS011;29549;40.386;-3.710;2023-07-09T20:48:22;6.90;;;3.65;;
43540;SDS011;29549;40.386;-3.710;2023-07-09T20:58:24;6.25;;;3.60;;
43540;SDS011;29549;40.386;-3.710;2023-07-09T21:08:27;5.78;;;3.40;;
43540;SDS011;29549;40.386;-3.710;2023-07-09T21:18:31;7.43;;;4.10;;
43540;SDS011;29549;40.386;-3.710;2023-07-09T21:28:33;5.50;;;3.92;;
43540;SDS011;29549;40.386;-3.710;2023-07-09T21:38:34;5.85;;;3.20;;
43540;SDS011;29549;40.386;-3.710;2023-07-09T21:48:35;5.25;;;3.30;;
43540;SDS011;29549;40.386;-3.710;2023-07-09T21:58:36;5.85;;;3.20;;
43540;SDS011;29549;40.386;-3.710;2023-07-09T22:08:36;8.85;;;3.30;;
43540;SDS011;29549;40.386;-3.710;2023-07-09T22:18:37;4.65;;;2.45;;
43540;SDS011;29549;40.386;-3.710;2023-07-09T22:28:38;8.75;;;2.97;;
43540;SDS011;29549;40.386;-3.710;2023-07-09T22:38:40;9.57;;;5.82;;
43540;SDS011;29549;40.386;-3.710;2023-07-09T22:48:41;4.85;;;3.47;;
43540;SDS011;29549;40.386;-3.710;2023-07-09T22:58:43;4.22;;;2.80;;
43540;SDS011;29549;40.386;-3.710;2023-07-09T23:08:44;6.57;;;2.40;;
43540;SDS011;29549;40.386;-3.710;2023-07-09T23:18:46;5.68;;;3.13;;
43540;SDS011;29549;40.386;-3.710;2023-07-09T23:28:48;6.15;;;3.28;;
43540;SDS011;29549;40.386;-3.710;2023-07-09T23:48:50;5.80;;;2.40;;
